Time;durP1;ratioP1;P1;durP2;ratioP2;P2;SDS_P1;SDS_P2;PMS_P1;PMS_P2;Temp;Humidity;BMP_temperature;BMP_pressure;BME280_temperature;BME280_humidity;BME280_pressure;Samples;Min_cycle;Max_cycle;Signal;HPM_P1;HPM_P2
2021/04/24 00:00:16;;;;;;;22.10;11.27;;;;;;;6.46;67.76;96677.28;1039925;28;20025;-64
2021/04/24 00:00:46;;;;;;;19.23;10.82;;;;;;;6.49;68.19;96676.00;1040157;28;20025;-64
2021/04/24 00:01:16;;;;;;;20.90;11.13;;;;;;;6.47;68.06;96680.75;1039735;28;20032;-64
2021/04/24 00:01:47;;;;;;;21.77;11.40;;;;;;;6.48;68.14;96677.03;1040126;28;20097;-64
2021/04/24 00:02:17;;;;;;;26.90;11.67;;;;;;;6.45;68.10;96674.84;1040178;28;20033;-64
2021/04/24 00:02:48;;;;;;;21.90;11.57;;;;;;;6.47;68.04;96676.22;1040037;28;20071;-64
2021/04/24 00:03:18;;;;;;;20.07;11.87;;;;;;;6.46;67.82;96679.94;1040258;28;20074;-65
2021/04/24 00:03:49;;;;;;;23.90;12.37;;;;;;;6.46;67.80;96681.78;1040118;28;20459;-64
2021/04/24 00:04:19;;;;;;;22.87;12.10;;;;;;;6.45;67.56;96672.19;1040266;28;20033;-64
2021/04/24 00:04:50;;;;;;;25.70;12.37;;;;;;;6.46;67.53;96671.16;1040183;28;20025;-64
2021/04/24 00:05:29;;;;;;;22.87;12.10;;;;;;;6.42;67.53;96665.47;1040248;28;20029;-64
2021/04/24 00:05:59;;;;;;;24.50;12.80;;;;;;;6.44;67.39;96667.91;1037871;28;20022;-64
2021/04/24 00:06:30;;;;;;;25.63;12.10;;;;;;;6.44;67.54;96668.72;1040032;28;20037;-64
2021/04/24 00:07:00;;;;;;;25.57;12.70;;;;;;;6.44;67.57;96673.22;1040190;28;20009;-64
2021/04/24 00:07:30;;;;;;;24.03;12.00;;;;;;;6.45;67.31;96664.25;1039554;28;20029;-65
2021/04/24 00:08:03;;;;;;;30.73;13.53;;;;;;;6.45;67.32;96664.25;1040221;28;20017;-64
2021/04/24 00:08:34;;;;;;;24.85;12.77;;;;;;;6.44;67.35;96662.59;1040174;28;20079;-64
2021/04/24 00:09:04;;;;;;;25.10;13.43;;;;;;;6.45;67.31;96658.94;1040143;28;20083;-64
2021/04/24 00:09:35;;;;;;;29.93;12.63;;;;;;;6.43;67.34;96666.28;1039688;28;20478;-64
2021/04/24 00:10:06;;;;;;;26.00;13.07;;;;;;;6.43;67.41;96664.44;1040090;28;20033;-64
2021/04/24 00:10:38;;;;;;;24.47;12.53;;;;;;;6.45;67.24;96667.69;1040119;28;20029;-64
2021/04/24 00:11:08;;;;;;;25.27;12.77;;;;;;;6.45;67.42;96662.38;1039890;28;20026;-64
2021/04/24 00:11:39;;;;;;;27.40;11.33;;;;;;;6.44;67.24;96668.72;1040007;28;20041;-64
2021/04/24 00:12:09;;;;;;;25.30;12.57;;;;;;;6.45;67.36;96665.03;1040082;28;20021;-64
2021/04/24 00:12:40;;;;;;;28.70;12.90;;;;;;;6.43;67.30;96658.31;1040128;28;20060;-64
2021/04/24 00:13:11;;;;;;;22.50;13.03;;;;;;;6.37;68.21;96656.59;1040119;28;20013;-64
2021/04/24 00:13:41;;;;;;;24.80;12.40;;;;;;;6.32;68.36;96661.75;1040166;28;20159;-64
2021/04/24 00:14:12;;;;;;;24.07;12.23;;;;;;;6.31;68.38;96662.81;1039907;28;20425;-64
2021/04/24 00:14:42;;;;;;;23.87;11.70;;;;;;;6.30;68.92;96662.00;1039828;28;20029;-64
2021/04/24 00:15:13;;;;;;;27.23;12.33;;;;;;;6.29;69.30;96657.69;1039964;28;20025;-64
2021/04/24 00:15:44;;;;;;;23.98;12.40;;;;;;;6.28;69.33;96655.28;1039973;28;20033;-64
2021/04/24 00:16:14;;;;;;;23.40;12.10;;;;;;;6.29;69.23;96662.19;1043223;28;20017;-64
2021/04/24 00:16:45;;;;;;;23.83;12.03;;;;;;;6.27;69.65;96654.47;1041133;28;20045;-64
2021/04/24 00:17:15;;;;;;;25.17;12.50;;;;;;;6.23;69.65;96656.75;1039898;28;20036;-64
2021/04/24 00:17:45;;;;;;;24.27;12.57;;;;;;;6.16;70.15;96657.91;1036692;28;20037;-63
2021/04/24 00:18:16;;;;;;;24.60;13.17;;;;;;;6.14;69.95;96652.84;1040236;28;20025;-63
2021/04/24 00:18:46;;;;;;;26.33;12.67;;;;;;;6.08;70.31;96653.72;1040201;28;20061;-63
2021/04/24 00:19:17;;;;;;;21.87;12.07;;;;;;;6.05;69.98;96656.81;1040099;28;20076;-63
2021/04/24 00:19:47;;;;;;;21.37;11.50;;;;;;;6.01;69.76;96657.50;1039875;28;20033;-65
2021/04/24 00:20:19;;;;;;;36.10;12.50;;;;;;;5.99;69.93;96657.72;1039947;28;20029;-64
2021/04/24 00:20:50;;;;;;;27.25;11.32;;;;;;;5.98;70.00;96653.44;1039905;28;20021;-64
2021/04/24 00:21:20;;;;;;;23.30;11.40;;;;;;;5.98;70.12;96654.25;1039948;28;20026;-64
2021/04/24 00:21:51;;;;;;;22.53;10.77;;;;;;;5.97;69.87;96652.63;1040070;28;20025;-64
2021/04/24 00:22:21;;;;;;;20.77;11.20;;;;;;;5.97;70.02;96647.31;1040292;28;20527;-64
2021/04/24 00:22:51;;;;;;;22.80;10.90;;;;;;;5.97;69.90;96646.50;1040220;28;20024;-63
2021/04/24 00:23:22;;;;;;;20.77;10.80;;;;;;;5.95;70.11;96649.41;1040148;28;20028;-64
2021/04/24 00:23:52;;;;;;;18.70;9.53;;;;;;;5.96;70.45;96645.72;1041195;28;20437;-64
2021/04/24 00:24:23;;;;;;;18.87;10.00;;;;;;;5.95;70.24;96649.41;1040409;28;20493;-64
2021/04/24 00:24:53;;;;;;;20.10;10.77;;;;;;;5.94;70.18;96650.44;1039634;28;20494;-63
2021/04/24 00:25:24;;;;;;;22.03;10.47;;;;;;;5.93;70.23;96648.78;1039729;28;20060;-63
2021/04/24 00:25:54;;;;;;;17.60;10.13;;;;;;;5.92;69.79;96644.53;1039724;28;20383;-63
2021/04/24 00:26:25;;;;;;;19.40;10.17;;;;;;;5.92;70.00;96652.50;1041176;28;20509;-65
2021/04/24 00:26:55;;;;;;;20.08;9.95;;;;;;;5.91;69.68;96645.56;1043860;28;20031;-64
2021/04/24 00:27:26;;;;;;;21.50;10.00;;;;;;;5.90;70.04;96648.44;1044275;28;20100;-64
2021/04/24 00:27:56;;;;;;;21.77;9.60;;;;;;;5.90;69.98;96651.06;1044260;28;20469;-64
2021/04/24 00:28:27;;;;;;;19.07;9.37;;;;;;;5.91;69.63;96639.44;1043751;28;20017;-64
2021/04/24 00:28:57;;;;;;;16.73;9.53;;;;;;;5.91;70.34;96645.56;1040178;28;20087;-64
2021/04/24 00:29:28;;;;;;;17.70;9.33;;;;;;;5.92;70.00;96652.50;1039033;28;20037;-64
2021/04/24 00:29:58;;;;;;;18.83;9.67;;;;;;;5.92;70.35;96647.19;1039918;28;20036;-65
2021/04/24 00:30:29;;;;;;;19.93;9.60;;;;;;;5.95;70.38;96644.09;1039940;28;20455;-64
2021/04/24 00:30:59;;;;;;;23.07;9.77;;;;;;;5.93;70.23;96645.34;1040224;28;20402;-64
2021/04/24 00:31:29;;;;;;;18.13;9.33;;;;;;;5.95;70.26;96640.63;1039986;28;20033;-64
2021/04/24 00:32:00;;;;;;;21.47;10.07;;;;;;;5.93;70.30;96640.03;1040269;28;20026;-64
2021/04/24 00:32:31;;;;;;;21.30;9.82;;;;;;;5.93;70.08;96638.19;1040150;28;20037;-64
2021/04/24 00:33:01;;;;;;;18.40;9.50;;;;;;;5.95;70.27;96641.44;1039841;28;20025;-64
2021/04/24 00:33:32;;;;;;;19.53;10.07;;;;;;;5.94;70.51;96636.38;1039487;28;20029;-64
2021/04/24 00:34:04;;;;;;;19.90;9.50;;;;;;;5.95;70.13;96640.63;1040314;28;20021;-64
2021/04/24 00:34:34;;;;;;;21.23;10.27;;;;;;;5.95;70.22;96638.78;1040143;28;20151;-64
2021/04/24 00:35:05;;;;;;;19.33;10.17;;;;;;;5.93;70.53;96638.19;1039903;28;20025;-64
2021/04/24 00:35:36;;;;;;;23.15;10.35;;;;;;;5.93;70.32;96632.06;1039973;28;20036;-64
2021/04/24 00:36:06;;;;;;;25.07;9.67;;;;;;;5.93;70.31;96635.53;1040145;28;20036;-64
2021/04/24 00:36:37;;;;;;;19.93;9.43;;;;;;;5.91;70.44;96632.31;1040238;28;20415;-64
2021/04/24 00:37:07;;;;;;;22.70;9.93;;;;;;;5.91;70.73;96632.31;1039909;28;20025;-64
2021/04/24 00:37:37;;;;;;;21.73;9.33;;;;;;;5.93;70.76;96634.72;1040021;28;20036;-65
2021/04/24 00:38:08;;;;;;;19.10;9.77;;;;;;;5.91;70.66;96629.66;1040181;28;20040;-64
2021/04/24 00:38:38;;;;;;;21.20;9.53;;;;;;;5.92;70.81;96630.47;1039979;28;20037;-64
2021/04/24 00:39:09;;;;;;;20.97;10.10;;;;;;;5.91;70.97;96629.66;1041358;28;20076;-64
2021/04/24 00:39:39;;;;;;;18.80;10.33;;;;;;;5.89;70.88;96628.25;1040644;28;20075;-65
2021/04/24 00:40:10;;;;;;;17.40;9.50;;;;;;;5.90;71.06;96627.19;1039846;28;20056;-64
2021/04/24 00:40:40;;;;;;;18.53;9.57;;;;;;;5.87;70.89;96630.28;1040269;28;20074;-64
2021/04/24 00:41:11;;;;;;;20.53;9.40;;;;;;;5.89;71.00;96628.25;1040032;28;20264;-64
2021/04/24 00:41:41;;;;;;;19.43;9.63;;;;;;;5.88;71.29;96631.91;1039987;28;20022;-64
2021/04/24 00:42:12;;;;;;;20.73;9.90;;;;;;;5.88;71.43;96629.25;1040006;28;20037;-64
2021/04/24 00:42:42;;;;;;;19.90;9.27;;;;;;;5.87;71.23;96628.44;1040447;28;20032;-64
2021/04/24 00:43:13;;;;;;;19.87;9.60;;;;;;;5.89;71.42;96626.41;1041470;28;20120;-64
2021/04/24 00:43:44;;;;;;;19.42;9.45;;;;;;;5.90;71.09;96622.69;1037499;28;20395;-64
2021/04/24 00:44:14;;;;;;;20.53;9.73;;;;;;;5.91;71.69;96623.50;1039989;28;20021;-64
2021/04/24 00:44:46;;;;;;;18.30;9.60;;;;;;;5.89;71.42;96615.78;1039937;28;20033;-64
2021/04/24 00:45:20;;;;;;;21.73;9.15;;;;;;;5.93;71.40;96619.63;1039911;28;20374;-64
2021/04/24 00:45:50;;;;;;;20.55;10.25;;;;;;;5.91;71.54;96615.56;1040113;28;20036;-64
2021/04/24 00:46:22;;;;;;;21.87;9.90;;;;;;;5.94;71.11;96615.16;1039978;28;20018;-64
2021/04/24 00:46:52;;;;;;;19.80;9.93;;;;;;;5.97;71.03;96619.97;1039986;28;20029;-65
2021/04/24 00:47:23;;;;;;;17.43;9.43;;;;;;;5.99;71.25;96615.28;1040110;28;20021;-65
2021/04/24 00:47:54;;;;;;;18.77;9.55;;;;;;;6.01;71.00;96625.66;1039988;28;20532;-64
2021/04/24 00:48:24;;;;;;;18.10;9.60;;;;;;;6.01;71.13;96618.50;1040056;28;20149;-64
2021/04/24 00:48:54;;;;;;;23.33;9.70;;;;;;;6.07;70.78;96622.09;1039795;28;20032;-64
2021/04/24 00:49:25;;;;;;;19.63;10.07;;;;;;;6.09;70.95;96620.00;1040006;28;20040;-64
2021/04/24 00:49:55;;;;;;;22.63;10.47;;;;;;;6.10;70.71;96619.81;1040109;28;20038;-64
2021/04/24 00:50:28;;;;;;;18.03;9.70;;;;;;;6.11;70.71;96617.97;1040130;28;20050;-64
2021/04/24 00:50:58;;;;;;;17.90;10.32;;;;;;;6.12;70.58;96622.22;1040009;28;20029;-64
2021/04/24 00:51:29;;;;;;;15.93;9.37;;;;;;;6.14;70.78;96614.84;1041163;28;20025;-64
2021/04/24 00:51:59;;;;;;;20.73;10.47;;;;;;;6.15;70.82;96609.31;1040085;28;20053;-64
2021/04/24 00:52:29;;;;;;;24.63;10.80;;;;;;;6.15;70.45;96605.88;1039855;28;20075;-64
2021/04/24 00:53:00;;;;;;;17.97;10.33;;;;;;;6.16;70.48;96618.91;1040075;28;20017;-64
2021/04/24 00:53:30;;;;;;;24.60;10.07;;;;;;;6.18;70.36;96613.34;1039663;28;20025;-64
2021/04/24 00:54:01;;;;;;;20.43;10.33;;;;;;;6.19;70.20;96617.63;1039726;28;20060;-64
2021/04/24 00:54:31;;;;;;;19.20;9.80;;;;;;;6.18;70.37;96616.81;1039833;28;20403;-64
2021/04/24 00:55:02;;;;;;;19.30;10.43;;;;;;;6.18;70.36;96614.16;1035384;28;20499;-64
2021/04/24 00:55:33;;;;;;;20.02;9.90;;;;;;;6.18;70.36;96608.84;1039651;28;20025;-64
2021/04/24 00:56:04;;;;;;;20.42;10.32;;;;;;;6.16;70.45;96612.78;1037087;28;20021;-64
2021/04/24 00:56:35;;;;;;;22.08;10.63;;;;;;;6.14;70.30;96613.03;1039720;28;20116;-64
2021/04/24 00:57:06;;;;;;;23.27;10.70;;;;;;;6.14;70.58;96614.84;1040051;28;20033;-64
2021/04/24 00:57:36;;;;;;;21.07;11.07;;;;;;;6.11;70.40;96608.16;1039968;28;20385;-64
2021/04/24 00:58:11;;;;;;;24.07;10.87;;;;;;;6.11;70.39;96605.50;1039787;28;20017;-64
2021/04/24 00:58:42;;;;;;;22.60;10.45;;;;;;;6.11;70.43;96605.50;1039729;28;20021;-64
2021/04/24 00:59:12;;;;;;;23.83;11.03;;;;;;;6.13;70.22;96605.25;1039768;28;20067;-64
2021/04/24 00:59:42;;;;;;;28.17;11.33;;;;;;;6.10;70.73;96611.84;1035494;28;20018;-64
2021/04/24 01:00:14;;;;;;;21.83;10.07;;;;;;;6.11;70.40;96602.84;1031581;28;20042;-64
2021/04/24 01:00:44;;;;;;;21.98;11.13;;;;;;;6.12;70.33;96606.31;1031901;28;20014;-64
2021/04/24 01:01:15;;;;;;;24.53;11.63;;;;;;;6.09;70.34;96610.22;1035764;28;20133;-64
2021/04/24 01:01:45;;;;;;;21.17;10.17;;;;;;;6.08;70.49;96605.13;1035707;28;20068;-64
2021/04/24 01:02:16;;;;;;;23.83;11.13;;;;;;;6.07;70.30;96600.88;1036116;28;20014;-64
2021/04/24 01:02:46;;;;;;;22.93;10.37;;;;;;;6.02;70.79;96596.22;1035982;28;20026;-64
2021/04/24 01:03:17;;;;;;;22.00;9.80;;;;;;;5.99;71.20;96607.31;1036090;28;20487;-64
2021/04/24 01:03:47;;;;;;;20.07;9.53;;;;;;;5.96;71.42;96607.75;1035979;28;20029;-64
2021/04/24 01:04:18;;;;;;;17.03;10.63;;;;;;;5.94;71.41;96601.88;1039786;28;20021;-64
2021/04/24 01:04:48;;;;;;;20.80;10.43;;;;;;;5.90;71.51;96604.13;1039777;28;20075;-64
2021/04/24 01:05:21;;;;;;;19.00;10.10;;;;;;;5.89;71.54;96599.88;1035635;28;20073;-64
2021/04/24 01:05:51;;;;;;;21.45;10.82;;;;;;;5.87;71.47;96598.47;1035731;28;20029;-64
2021/04/24 01:06:21;;;;;;;22.87;10.33;;;;;;;5.86;71.48;96607.44;1035723;28;20088;-64
2021/04/24 01:06:52;;;;;;;22.50;10.77;;;;;;;5.82;71.60;96608.94;1035852;28;20403;-64
2021/04/24 01:07:22;;;;;;;24.07;11.07;;;;;;;5.79;71.76;96601.44;1036071;28;20468;-63
2021/04/24 01:07:53;;;;;;;25.93;10.17;;;;;;;5.77;72.28;96599.00;1036005;28;20506;-64
2021/04/24 01:08:23;;;;;;;24.93;10.50;;;;;;;5.75;72.38;96601.06;1036056;28;20022;-64
2021/04/24 01:08:54;;;;;;;19.67;10.90;;;;;;;5.72;72.76;96604.97;1035990;28;20018;-64
2021/04/24 01:09:26;;;;;;;22.40;9.97;;;;;;;5.65;73.14;96598.94;1036111;28;20010;-63
2021/04/24 01:09:56;;;;;;;20.20;9.30;;;;;;;5.61;73.49;96603.06;1035574;28;20014;-63
2021/04/24 01:10:33;;;;;;;19.37;9.53;;;;;;;5.55;73.48;96609.28;1035678;28;20022;-64
2021/04/24 01:11:03;;;;;;;18.42;9.85;;;;;;;5.50;73.40;96605.69;1035768;28;20022;-64
2021/04/24 01:11:33;;;;;;;19.40;8.90;;;;;;;5.45;73.62;96603.69;1035849;28;20025;-63
2021/04/24 01:12:04;;;;;;;19.37;9.17;;;;;;;5.41;73.71;96594.56;1035782;28;20041;-64
2021/04/24 01:12:35;;;;;;;19.83;9.80;;;;;;;5.37;73.70;96598.66;1039229;28;20029;-64
2021/04/24 01:13:06;;;;;;;23.83;9.33;;;;;;;5.36;73.60;96597.88;1031484;28;20027;-64
2021/04/24 01:13:36;;;;;;;20.70;9.73;;;;;;;5.36;73.46;96602.38;1031669;28;20022;-64
2021/04/24 01:14:06;;;;;;;18.97;9.60;;;;;;;5.35;73.78;96603.41;1031588;28;20066;-64
2021/04/24 01:14:37;;;;;;;16.00;9.00;;;;;;;5.32;73.80;96598.53;1028113;28;20058;-64
2021/04/24 01:15:08;;;;;;;20.40;8.43;;;;;;;5.31;74.10;96599.56;1039823;28;20072;-64
2021/04/24 01:15:38;;;;;;;16.88;8.77;;;;;;;5.30;74.18;96601.41;1039828;28;20075;-63
2021/04/24 01:16:09;;;;;;;21.40;9.10;;;;;;;5.31;73.97;96599.56;1035857;28;20466;-63
2021/04/24 01:16:41;;;;;;;18.37;8.73;;;;;;;5.30;73.89;96592.66;1039736;28;20526;-64
2021/04/24 01:17:11;;;;;;;15.63;8.85;;;;;;;5.28;74.18;96592.88;1039844;28;20025;-64
2021/04/24 01:17:42;;;;;;;17.27;8.93;;;;;;;5.28;73.69;96592.06;1039857;28;20030;-64
2021/04/24 01:18:12;;;;;;;16.20;8.93;;;;;;;5.29;73.61;96593.69;1040110;28;20025;-64
2021/04/24 01:18:43;;;;;;;15.70;8.80;;;;;;;5.27;73.28;96593.09;1040151;28;20022;-64
2021/04/24 01:19:14;;;;;;;24.93;8.50;;;;;;;5.27;73.61;96585.94;1040075;28;20048;-64
2021/04/24 01:19:44;;;;;;;22.85;10.80;;;;;;;5.26;73.56;96597.56;1039782;28;20581;-64
2021/04/24 01:20:15;;;;;;;19.67;10.47;;;;;;;5.27;73.79;96596.53;1039702;28;20049;-64
2021/04/24 01:20:46;;;;;;;19.13;10.90;;;;;;;5.27;73.69;96598.38;1039798;28;20454;-64
2021/04/24 01:21:16;;;;;;;27.93;13.57;;;;;;;5.27;73.37;96593.88;1036001;28;20538;-63
2021/04/24 01:21:47;;;;;;;30.27;14.80;;;;;;;5.26;73.66;96594.94;1035727;28;20026;-64
2021/04/24 01:22:17;;;;;;;28.00;14.97;;;;;;;5.26;73.15;96591.47;1035429;28;20025;-64
2021/04/24 01:22:48;;;;;;;32.60;15.27;;;;;;;5.25;73.07;96593.31;1035963;28;20097;-65
2021/04/24 01:23:18;;;;;;;26.58;14.05;;;;;;;5.22;72.45;96593.78;1036045;28;20406;-65
2021/04/24 01:23:50;;;;;;;25.77;13.77;;;;;;;5.25;72.93;96595.97;1039816;28;20141;-64
2021/04/24 01:24:21;;;;;;;28.27;12.70;;;;;;;5.22;73.13;96593.78;1039837;28;20021;-64
2021/04/24 01:24:51;;;;;;;25.37;12.60;;;;;;;5.23;73.32;96600.69;1035912;28;20026;-64
2021/04/24 01:25:23;;;;;;;23.30;11.30;;;;;;;5.24;73.22;96596.19;1039852;28;20010;-64
2021/04/24 01:25:54;;;;;;;21.33;12.48;;;;;;;5.24;72.53;96594.34;1039837;28;20029;-64
2021/04/24 01:26:24;;;;;;;19.50;10.27;;;;;;;5.24;72.70;96598.84;1035993;28;20025;-65
2021/04/24 01:26:55;;;;;;;21.67;10.40;;;;;;;5.27;72.77;96591.25;1035614;28;20029;-65
2021/04/24 01:27:25;;;;;;;26.63;12.80;;;;;;;5.27;72.57;96593.09;1035638;28;20026;-63
2021/04/24 01:27:57;;;;;;;23.50;11.93;;;;;;;5.26;72.34;96589.63;1035650;28;20036;-64
2021/04/24 01:28:30;;;;;;;18.85;9.93;;;;;;;5.27;72.32;96595.72;1035673;28;20030;-64
2021/04/24 01:29:02;;;;;;;20.85;9.60;;;;;;;5.28;72.51;96592.88;1035971;28;20030;-64
2021/04/24 01:29:36;;;;;;;22.13;10.23;;;;;;;5.28;72.06;96594.72;1036011;28;20057;-64
2021/04/24 01:30:08;;;;;;;21.45;10.40;;;;;;;5.28;72.36;96592.06;1035973;28;20025;-64
2021/04/24 01:30:40;;;;;;;19.70;9.85;;;;;;;5.28;71.94;96597.38;1036045;28;20018;-64
2021/04/24 01:31:11;;;;;;;18.27;10.35;;;;;;;5.29;72.09;96596.34;1035969;28;20551;-64
2021/04/24 01:31:41;;;;;;;20.40;9.77;;;;;;;5.31;71.96;96594.25;1036073;28;20033;-64
2021/04/24 01:32:12;;;;;;;20.03;9.50;;;;;;;5.31;72.38;96595.06;1035959;28;20026;-64
2021/04/24 01:32:42;;;;;;;21.07;10.63;;;;;;;5.30;72.13;96596.09;1035890;28;20029;-64
2021/04/24 01:33:13;;;;;;;23.53;10.77;;;;;;;5.33;72.58;96597.53;1035937;28;20026;-64
2021/04/24 01:33:43;;;;;;;19.95;10.88;;;;;;;5.31;73.00;96595.06;1035937;28;20033;-64
2021/04/24 01:34:14;;;;;;;22.03;10.17;;;;;;;5.30;72.69;96590.81;1036028;28;20022;-64
2021/04/24 01:34:44;;;;;;;23.40;11.83;;;;;;;5.29;72.96;96596.34;1035624;28;20475;-64
2021/04/24 01:35:16;;;;;;;21.40;11.57;;;;;;;5.31;72.52;96589.78;1035727;28;20018;-64
2021/04/24 01:35:46;;;;;;;25.92;12.30;;;;;;;5.31;72.58;96594.25;1035777;28;20451;-64
2021/04/24 01:36:17;;;;;;;24.30;12.40;;;;;;;5.32;72.31;96593.22;1035723;28;20026;-64
2021/04/24 01:36:47;;;;;;;25.20;12.50;;;;;;;5.33;71.84;96587.72;1036021;28;20061;-65
2021/04/24 01:37:18;;;;;;;27.97;13.17;;;;;;;5.33;72.22;96589.56;1035839;28;20025;-64
2021/04/24 01:37:48;;;;;;;26.63;11.83;;;;;;;5.31;71.74;96592.41;1036011;28;20053;-64
2021/04/24 01:38:19;;;;;;;19.07;11.33;;;;;;;5.30;71.50;96587.34;1035992;28;20052;-64
2021/04/24 01:38:49;;;;;;;24.87;11.87;;;;;;;5.32;71.42;96590.56;1035660;28;20383;-64
2021/04/24 01:39:19;;;;;;;22.60;12.10;;;;;;;5.31;71.64;96595.06;1035595;28;20018;-64
2021/04/24 01:39:50;;;;;;;24.53;13.30;;;;;;;5.31;71.68;96587.13;1031695;28;20038;-64
2021/04/24 01:40:20;;;;;;;24.40;11.97;;;;;;;5.32;71.87;96588.72;1031844;28;20129;-64
2021/04/24 01:40:51;;;;;;;21.17;11.23;;;;;;;5.30;72.37;96590.00;1036321;28;20030;-64
2021/04/24 01:41:21;;;;;;;24.70;11.53;;;;;;;5.29;72.39;96583.09;1036376;28;20474;-64
2021/04/24 01:41:52;;;;;;;23.33;11.30;;;;;;;5.28;72.66;96589.44;1036803;28;20029;-64
2021/04/24 01:42:22;;;;;;;21.70;11.33;;;;;;;5.26;72.54;96589.63;1036369;28;20137;-64
2021/04/24 01:42:52;;;;;;;22.80;12.93;;;;;;;5.25;72.65;96580.06;1036344;28;20021;-64
2021/04/24 01:43:23;;;;;;;22.77;12.67;;;;;;;5.27;72.39;96588.59;1036341;28;20117;-64
2021/04/24 01:43:54;;;;;;;26.30;12.90;;;;;;;5.27;72.72;96578.00;1036385;28;20382;-64
2021/04/24 01:44:25;;;;;;;28.35;12.80;;;;;;;5.24;72.88;96581.09;1036265;28;20403;-64
2021/04/24 01:44:55;;;;;;;24.50;12.00;;;;;;;5.23;72.55;96582.13;1036487;28;20112;-64
2021/04/24 01:45:26;;;;;;;23.97;12.03;;;;;;;5.25;72.71;96585.38;1032273;28;20023;-64
2021/04/24 01:45:56;;;;;;;24.13;11.90;;;;;;;5.26;72.59;96583.53;1032489;28;20022;-64
2021/04/24 01:46:27;;;;;;;24.50;12.50;;;;;;;5.25;72.74;96580.06;1036403;28;20402;-64
2021/04/24 01:46:57;;;;;;;25.03;12.10;;;;;;;5.24;73.01;96586.41;1036419;28;20467;-64
2021/04/24 01:47:27;;;;;;;30.10;12.93;;;;;;;5.23;73.18;96587.44;1037364;28;20382;-64
2021/04/24 01:47:58;;;;;;;24.73;12.13;;;;;;;5.22;72.93;96586.63;1040483;28;20033;-64
2021/04/24 01:48:28;;;;;;;21.63;12.03;;;;;;;5.20;73.23;96587.88;1040661;28;20536;-64
2021/04/24 01:48:59;;;;;;;26.17;12.33;;;;;;;5.18;73.64;96587.28;1040651;28;20018;-64
2021/04/24 01:49:29;;;;;;;25.43;12.00;;;;;;;5.18;73.76;96584.63;1040672;28;20014;-64
2021/04/24 01:49:59;;;;;;;27.53;11.77;;;;;;;5.18;73.74;96585.44;1040818;28;20029;-64
2021/04/24 01:50:32;;;;;;;26.60;12.17;;;;;;;5.21;73.65;96584.19;1040721;28;20029;-64
2021/04/24 01:51:02;;;;;;;22.33;11.75;;;;;;;5.24;74.00;96583.75;1040833;28;20474;-64
2021/04/24 01:51:33;;;;;;;23.33;11.67;;;;;;;5.25;73.87;96585.38;1040749;28;20041;-64
2021/04/24 01:52:04;;;;;;;22.60;11.20;;;;;;;5.29;73.77;96585.75;1040698;28;20095;-64
2021/04/24 01:52:35;;;;;;;23.83;11.23;;;;;;;5.32;73.60;96590.56;1040754;28;20072;-64
2021/04/24 01:53:07;;;;;;;22.63;10.95;;;;;;;5.33;73.38;96577.13;1040774;28;20018;-64
2021/04/24 01:53:37;;;;;;;22.20;10.77;;;;;;;5.34;73.37;96583.22;1040794;28;20057;-64
2021/04/24 01:54:08;;;;;;;20.37;10.93;;;;;;;5.32;73.20;96583.44;1040778;28;20455;-64
2021/04/24 01:54:38;;;;;;;24.93;11.70;;;;;;;5.34;73.29;96577.94;1040812;28;20017;-64
2021/04/24 01:55:12;;;;;;;26.70;11.33;;;;;;;5.35;73.20;96577.69;1040787;28;20020;-64
2021/04/24 01:55:42;;;;;;;27.73;11.77;;;;;;;5.33;73.76;96576.31;1040148;28;20021;-64
2021/04/24 01:56:13;;;;;;;26.63;11.40;;;;;;;5.34;74.00;96580.59;1040301;28;20037;-64
2021/04/24 01:56:48;;;;;;;22.10;10.77;;;;;;;5.33;73.62;96579.78;1040567;28;20025;-64
2021/04/24 01:57:19;;;;;;;24.73;10.90;;;;;;;5.32;73.74;96583.44;1040578;28;20092;-64
2021/04/24 01:57:50;;;;;;;29.17;12.27;;;;;;;5.30;74.10;96580.22;1040644;28;20072;-64
2021/04/24 01:58:22;;;;;;;26.30;11.05;;;;;;;5.25;74.33;96579.25;1040797;28;20101;-64
2021/04/24 01:58:52;;;;;;;20.95;11.18;;;;;;;5.22;74.54;96576.03;1040766;28;20382;-64
2021/04/24 01:59:26;;;;;;;22.63;11.17;;;;;;;5.20;74.59;96577.25;1040713;28;20032;-64
2021/04/24 01:59:56;;;;;;;23.05;10.20;;;;;;;5.16;74.76;96579.53;1040747;28;20485;-64
2021/04/24 02:00:35;;;;;;;29.03;12.00;;;;;;;5.13;74.68;96577.34;1040712;28;20029;-64
2021/04/24 02:01:09;;;;;;;19.95;10.73;;;;;;;5.10;74.55;96576.97;1040726;28;20384;-64
2021/04/24 02:01:40;;;;;;;25.95;10.85;;;;;;;5.09;74.55;96567.41;1040701;28;20025;-64
2021/04/24 02:02:10;;;;;;;24.83;10.90;;;;;;;5.06;75.13;96575.78;1040712;28;20418;-64
2021/04/24 02:02:41;;;;;;;23.90;10.83;;;;;;;5.05;74.63;96568.88;1040774;28;20013;-64
2021/04/24 02:03:12;;;;;;;26.63;11.10;;;;;;;5.01;75.49;96576.44;1040784;28;20018;-64
2021/04/24 02:03:47;;;;;;;20.95;10.50;;;;;;;4.99;74.97;96567.91;1040767;28;20116;-64
2021/04/24 02:04:18;;;;;;;18.38;10.10;;;;;;;4.93;75.26;96568.81;1040702;28;20108;-64
2021/04/24 02:04:48;;;;;;;22.13;10.30;;;;;;;4.89;75.06;96571.06;1040525;28;20442;-64
2021/04/24 02:05:19;;;;;;;18.57;10.37;;;;;;;4.86;75.26;96570.69;1040207;28;20030;-64
2021/04/24 02:05:49;;;;;;;22.17;10.47;;;;;;;4.83;75.28;96573.81;1040668;28;20049;-64
2021/04/24 02:06:20;;;;;;;18.87;10.53;;;;;;;4.81;75.64;96562.59;1040684;28;20030;-64
2021/04/24 02:06:50;;;;;;;17.57;10.13;;;;;;;4.78;75.93;96571.00;1040601;28;20017;-64
2021/04/24 02:07:21;;;;;;;21.23;9.43;;;;;;;4.73;75.86;96566.34;1040522;28;20017;-64
2021/04/24 02:07:58;;;;;;;22.37;10.00;;;;;;;4.68;76.28;96561.72;1040721;28;20013;-65
2021/04/24 02:08:36;;;;;;;23.48;10.13;;;;;;;4.63;76.42;96566.84;1040685;28;20036;-65
2021/04/24 02:09:10;;;;;;;24.20;9.38;;;;;;;4.60;76.03;96563.81;1040812;28;20052;-64
2021/04/24 02:09:41;;;;;;;18.55;9.52;;;;;;;4.58;76.51;96563.25;1040698;28;20108;-64
2021/04/24 02:10:12;;;;;;;20.37;9.30;;;;;;;4.57;76.39;96572.22;1040644;28;20478;-63
2021/04/24 02:10:44;;;;;;;21.63;9.63;;;;;;;4.56;76.48;96563.47;1040440;28;20466;-64
2021/04/24 02:11:15;;;;;;;23.35;9.60;;;;;;;4.56;76.55;96568.75;1040446;28;20268;-64
2021/04/24 02:12:17;;;;;;;20.10;9.27;;;;;;;4.56;76.73;96555.53;1040047;28;20033;-64
2021/04/24 02:12:48;;;;;;;17.85;9.55;;;;;;;4.55;76.61;96563.66;1031901;28;20157;-65
2021/04/24 02:13:20;;;;;;;20.70;9.43;;;;;;;4.55;76.66;96567.13;1032166;28;20034;-65
2021/04/24 02:13:51;;;;;;;22.20;9.50;;;;;;;4.55;76.48;96561.03;1034008;28;20099;-63
2021/04/24 02:14:22;;;;;;;19.08;9.35;;;;;;;4.54;77.00;96570.78;1038319;28;20029;-63
2021/04/24 02:14:52;;;;;;;17.77;10.40;;;;;;;4.57;76.73;96564.28;1040664;28;20033;-63
2021/04/24 02:15:23;;;;;;;23.50;10.13;;;;;;;4.59;76.65;96563.00;1040740;28;20021;-64
2021/04/24 02:15:53;;;;;;;22.17;9.87;;;;;;;4.59;76.78;96565.66;1040747;28;20014;-64
2021/04/24 02:16:24;;;;;;;19.70;10.37;;;;;;;4.57;76.71;96565.09;1040690;28;20028;-64
2021/04/24 02:16:54;;;;;;;19.23;9.75;;;;;;;4.58;76.59;96569.34;1040651;28;20029;-64
2021/04/24 02:17:26;;;;;;;17.73;9.27;;;;;;;4.59;76.35;96565.66;1040751;28;20025;-64
2021/04/24 02:17:56;;;;;;;21.02;9.55;;;;;;;4.57;76.30;96564.28;1040706;28;20029;-64
2021/04/24 02:18:27;;;;;;;17.70;9.80;;;;;;;4.57;76.42;96574.88;1040651;28;20442;-64
2021/04/24 02:18:58;;;;;;;19.90;10.27;;;;;;;4.56;76.39;96571.41;1040611;28;20014;-63
2021/04/24 02:19:28;;;;;;;17.73;10.47;;;;;;;4.55;76.09;96564.47;1040645;28;20386;-63
2021/04/24 02:19:59;;;;;;;19.80;10.07;;;;;;;4.52;76.61;96564.94;1040624;28;20048;-64
2021/04/24 02:20:29;;;;;;;22.67;10.87;;;;;;;4.53;76.05;96561.25;1040459;28;20386;-64
2021/04/24 02:20:59;;;;;;;18.77;9.93;;;;;;;4.53;76.22;96561.25;1040566;28;20017;-64
2021/04/24 02:21:30;;;;;;;26.60;10.63;;;;;;;4.54;76.10;96562.06;1040786;28;20030;-64
2021/04/24 02:22:00;;;;;;;19.33;10.20;;;;;;;4.54;76.11;96562.84;1040719;28;20021;-64
2021/04/24 02:22:31;;;;;;;23.67;10.00;;;;;;;4.55;76.43;96563.66;1040357;28;20589;-63
2021/04/24 02:23:02;;;;;;;17.23;9.73;;;;;;;4.56;76.31;96565.31;1040624;28;20033;-64
2021/04/24 02:23:33;;;;;;;20.35;9.38;;;;;;;4.54;76.11;96568.16;1040700;28;20112;-64
2021/04/24 02:24:04;;;;;;;17.98;8.57;;;;;;;4.55;76.43;96568.97;1040645;28;20518;-64
2021/04/24 02:24:45;;;;;;;17.87;9.63;;;;;;;4.52;76.54;96564.94;1040542;28;20029;-64